Time;durP1;ratioP1;P1;durP2;ratioP2;P2;SDS_P1;SDS_P2;PMS_P1;PMS_P2;Temp;Humidity;BMP_temperature;BMP_pressure;BME280_temperature;BME280_humidity;BME280_pressure;Samples;Min_cycle;Max_cycle;Signal;HPM_P1;HPM_P2
2023/11/18 00:02:28;;;;;;;0.90;0.70;;;;;;;;;;4395307;32;317826;-83
2023/11/18 00:04:55;;;;;;;0.87;0.80;;;;;;;;;;4411772;32;317398;-85
2023/11/18 00:07:21;;;;;;;0.80;0.80;;;;;;;;;;4399161;32;317262;-84
2023/11/18 00:09:48;;;;;;;1.43;1.03;;;;;;;;;;4393284;32;317512;-83
2023/11/18 00:12:15;;;;;;;1.77;1.00;;;;;;;;;;4400989;32;317328;-83
2023/11/18 00:14:42;;;;;;;1.77;1.13;;;;;;;;;;4388870;32;316694;-86
2023/11/18 00:17:09;;;;;;;3.73;1.70;;;;;;;;;;4413310;32;315794;-86
2023/11/18 00:19:38;;;;;;;4.73;2.50;;;;;;;;;;4402790;32;317498;-84
2023/11/18 00:22:06;;;;;;;2.57;1.80;;;;;;;;;;4412859;32;316895;-84
2023/11/18 00:24:34;;;;;;;4.57;2.77;;;;;;;;;;4396938;32;316802;-84
2023/11/18 00:27:05;;;;;;;5.53;3.07;;;;;;;;;;4395487;32;317272;-86
2023/11/18 00:29:32;;;;;;;9.03;4.13;;;;;;;;;;4385714;32;317479;-83
2023/11/18 00:31:59;;;;;;;4.63;3.10;;;;;;;;;;4398817;32;317273;-83
2023/11/18 00:34:26;;;;;;;4.03;2.30;;;;;;;;;;4390086;32;317491;-85
2023/11/18 00:36:54;;;;;;;5.47;4.10;;;;;;;;;;4400380;32;341421;-82
2023/11/18 00:39:21;;;;;;;8.97;5.57;;;;;;;;;;4390347;32;317311;-86
2023/11/18 00:41:48;;;;;;;7.57;4.77;;;;;;;;;;4411302;32;317247;-86
2023/11/18 00:44:15;;;;;;;10.23;6.63;;;;;;;;;;4385212;32;317310;-85
2023/11/18 00:46:43;;;;;;;7.53;4.33;;;;;;;;;;4374870;32;317725;-86
2023/11/18 00:49:10;;;;;;;5.80;3.83;;;;;;;;;;4410524;32;316612;-86
2023/11/18 00:51:38;;;;;;;8.77;4.70;;;;;;;;;;4404494;32;317653;-86
2023/11/18 00:54:06;;;;;;;6.70;3.73;;;;;;;;;;4410422;32;317275;-86
2023/11/18 00:56:33;;;;;;;7.53;3.53;;;;;;;;;;4389218;32;317351;-86
2023/11/18 00:59:00;;;;;;;5.00;3.07;;;;;;;;;;4413950;32;317460;-85
2023/11/18 01:01:27;;;;;;;4.17;2.87;;;;;;;;;;4404734;32;317389;-86
2023/11/18 01:03:54;;;;;;;3.00;2.20;;;;;;;;;;4384308;32;317779;-86
2023/11/18 01:06:22;;;;;;;11.33;5.10;;;;;;;;;;4374363;32;317489;-83
2023/11/18 01:08:48;;;;;;;7.47;4.03;;;;;;;;;;4399342;32;318465;-83
2023/11/18 01:11:19;;;;;;;6.97;3.20;;;;;;;;;;4384389;32;316725;-84
2023/11/18 01:13:46;;;;;;;6.83;3.17;;;;;;;;;;4387464;32;416560;-86
2023/11/18 01:16:14;;;;;;;7.67;4.17;;;;;;;;;;4413699;32;317448;-85
2023/11/18 01:18:41;;;;;;;15.63;7.67;;;;;;;;;;4399750;32;317452;-84
2023/11/18 01:21:09;;;;;;;18.20;9.60;;;;;;;;;;4384300;32;318416;-86
2023/11/18 01:23:36;;;;;;;15.33;5.77;;;;;;;;;;4374523;32;319178;-85
2023/11/18 01:26:04;;;;;;;6.80;3.83;;;;;;;;;;4381689;32;356661;-85
2023/11/18 01:28:36;;;;;;;4.87;3.13;;;;;;;;;;4388954;32;317756;-86
2023/11/18 01:31:03;;;;;;;4.63;2.67;;;;;;;;;;4394130;32;317337;-84
2023/11/18 01:33:32;;;;;;;3.23;2.30;;;;;;;;;;4388768;32;317562;-86
2023/11/18 01:35:59;;;;;;;4.37;2.23;;;;;;;;;;4397132;32;346938;-86
2023/11/18 01:38:26;;;;;;;2.30;1.30;;;;;;;;;;4392123;32;317550;-84
2023/11/18 01:40:53;;;;;;;2.53;1.47;;;;;;;;;;4384768;32;317673;-86
2023/11/18 01:43:22;;;;;;;1.40;1.30;;;;;;;;;;4385812;32;317164;-86
2023/11/18 01:45:50;;;;;;;1.27;1.17;;;;;;;;;;4414353;32;317398;-85
2023/11/18 01:48:17;;;;;;;1.23;1.00;;;;;;;;;;4414314;32;317536;-86
2023/11/18 01:50:44;;;;;;;1.00;0.93;;;;;;;;;;4403837;32;317481;-86
2023/11/18 01:53:13;;;;;;;0.80;0.80;;;;;;;;;;4409479;32;317042;-84
2023/11/18 01:55:41;;;;;;;1.27;1.03;;;;;;;;;;4381067;32;317215;-86
2023/11/18 01:58:10;;;;;;;1.20;0.90;;;;;;;;;;4397327;32;317565;-87
2023/11/18 02:00:38;;;;;;;1.20;1.10;;;;;;;;;;4387582;32;317521;-85
2023/11/18 02:03:06;;;;;;;1.10;1.00;;;;;;;;;;4397476;32;317533;-84
2023/11/18 02:05:34;;;;;;;0.90;0.90;;;;;;;;;;4388416;32;317557;-85
2023/11/18 02:08:04;;;;;;;2.07;1.13;;;;;;;;;;4397197;32;317775;-83
2023/11/18 02:10:30;;;;;;;2.53;1.20;;;;;;;;;;4385313;32;332856;-86
2023/11/18 02:13:07;;;;;;;2.70;1.30;;;;;;;;;;4402935;32;317189;-85
2023/11/18 02:15:36;;;;;;;1.60;1.27;;;;;;;;;;4372708;32;317307;-85
2023/11/18 02:18:09;;;;;;;4.60;2.37;;;;;;;;;;4382592;32;317859;-87
2023/11/18 02:20:37;;;;;;;6.13;3.70;;;;;;;;;;4371932;32;341545;-85
2023/11/18 02:23:03;;;;;;;2.13;1.83;;;;;;;;;;4394890;32;317622;-86
2023/11/18 02:25:34;;;;;;;1.83;1.40;;;;;;;;;;4401473;32;317764;-85
2023/11/18 02:28:03;;;;;;;1.03;0.93;;;;;;;;;;4387288;32;318132;-83
2023/11/18 02:30:30;;;;;;;1.10;1.00;;;;;;;;;;4383043;32;317383;-83
2023/11/18 02:33:02;;;;;;;1.03;0.93;;;;;;;;;;4401166;32;317824;-87
2023/11/18 02:35:35;;;;;;;1.00;0.90;;;;;;;;;;4401969;32;347386;-87
2023/11/18 02:38:04;;;;;;;0.90;0.90;;;;;;;;;;4413621;32;317435;-84
2023/11/18 02:40:36;;;;;;;1.57;1.10;;;;;;;;;;4402757;32;317437;-85
2023/11/18 02:43:06;;;;;;;1.00;0.90;;;;;;;;;;4405418;32;317442;-87
2023/11/18 02:45:35;;;;;;;1.20;1.00;;;;;;;;;;4398007;32;317852;-84
2023/11/18 02:48:02;;;;;;;1.40;1.20;;;;;;;;;;4407632;32;317718;-87
2023/11/18 02:50:29;;;;;;;1.77;1.07;;;;;;;;;;4387108;32;317442;-87
2023/11/18 02:52:56;;;;;;;1.03;0.93;;;;;;;;;;4396930;32;316590;-85
2023/11/18 02:55:24;;;;;;;1.10;0.90;;;;;;;;;;4386668;32;315769;-86
2023/11/18 02:57:51;;;;;;;0.90;0.90;;;;;;;;;;4396806;32;316354;-86
2023/11/18 03:00:21;;;;;;;1.00;0.90;;;;;;;;;;4407812;32;316574;-86
2023/11/18 03:02:50;;;;;;;1.13;1.00;;;;;;;;;;4387934;32;415889;-87
2023/11/18 03:05:17;;;;;;;0.97;0.97;;;;;;;;;;4382311;32;315717;-85
2023/11/18 03:07:49;;;;;;;1.17;1.07;;;;;;;;;;4372831;32;316429;-85
2023/11/18 03:10:20;;;;;;;1.10;1.00;;;;;;;;;;4382368;32;316431;-84
2023/11/18 03:12:48;;;;;;;1.40;1.20;;;;;;;;;;4371041;32;415604;-84
2023/11/18 03:15:16;;;;;;;0.90;0.90;;;;;;;;;;4403260;32;315946;-85
2023/11/18 03:17:45;;;;;;;1.50;1.00;;;;;;;;;;4400030;32;316328;-85
2023/11/18 03:20:16;;;;;;;1.10;1.00;;;;;;;;;;4382586;32;316689;-85
2023/11/18 03:22:44;;;;;;;1.17;1.07;;;;;;;;;;4371316;32;316442;-85
2023/11/18 03:25:11;;;;;;;1.27;1.17;;;;;;;;;;4381983;32;316242;-84
2023/11/18 03:27:38;;;;;;;1.70;1.10;;;;;;;;;;4375057;32;316703;-85
2023/11/18 03:30:07;;;;;;;1.43;1.10;;;;;;;;;;4394570;32;315895;-83
2023/11/18 03:32:35;;;;;;;1.30;1.20;;;;;;;;;;4384882;32;350288;-83
2023/11/18 03:35:04;;;;;;;1.00;1.00;;;;;;;;;;4397751;32;316384;-85
2023/11/18 03:37:31;;;;;;;2.07;1.10;;;;;;;;;;4387150;32;316295;-85
2023/11/18 03:39:58;;;;;;;1.37;1.23;;;;;;;;;;4396646;32;317003;-86
2023/11/18 03:42:25;;;;;;;1.20;1.10;;;;;;;;;;4398626;32;348259;-87
2023/11/18 03:44:51;;;;;;;1.17;1.07;;;;;;;;;;4409931;32;316264;-87
2023/11/18 03:47:18;;;;;;;1.50;1.03;;;;;;;;;;4385991;32;316791;-86
2023/11/18 03:49:45;;;;;;;1.40;1.30;;;;;;;;;;4387549;32;416508;-87
2023/11/18 03:52:13;;;;;;;2.40;1.10;;;;;;;;;;4411927;32;345598;-86
2023/11/18 03:54:40;;;;;;;2.10;1.23;;;;;;;;;;4401582;32;315947;-83
2023/11/18 03:57:08;;;;;;;2.50;1.60;;;;;;;;;;4411982;32;316387;-84
2023/11/18 03:59:35;;;;;;;1.40;1.30;;;;;;;;;;4403068;32;316135;-85
2023/11/18 04:02:01;;;;;;;2.80;1.50;;;;;;;;;;4410553;32;316317;-84
2023/11/18 04:04:29;;;;;;;1.43;1.33;;;;;;;;;;4386382;32;316546;-86
2023/11/18 04:06:57;;;;;;;1.53;1.30;;;;;;;;;;4397465;32;316572;-86
2023/11/18 04:09:26;;;;;;;1.50;1.30;;;;;;;;;;4387510;32;316485;-86
2023/11/18 04:11:53;;;;;;;10.77;1.60;;;;;;;;;;4397586;32;316229;-85
2023/11/18 04:14:21;;;;;;;2.70;1.50;;;;;;;;;;4387320;32;317378;-86
2023/11/18 04:16:48;;;;;;;2.83;1.53;;;;;;;;;;4399493;32;316284;-85
2023/11/18 04:19:15;;;;;;;2.00;1.80;;;;;;;;;;4401652;32;316209;-86
2023/11/18 04:21:43;;;;;;;4.23;3.00;;;;;;;;;;4404046;32;323222;-85
2023/11/18 04:24:10;;;;;;;3.67;2.67;;;;;;;;;;4394425;32;316394;-84
2023/11/18 04:26:38;;;;;;;7.83;5.07;;;;;;;;;;4375427;32;316242;-84
2023/11/18 04:29:05;;;;;;;2.73;2.23;;;;;;;;;;4392818;32;316715;-84
2023/11/18 04:31:32;;;;;;;2.80;2.33;;;;;;;;;;4390892;32;316269;-82
2023/11/18 04:33:58;;;;;;;2.20;2.00;;;;;;;;;;4407483;32;316197;-82
2023/11/18 04:36:26;;;;;;;2.00;1.80;;;;;;;;;;4395494;32;316318;-81
2023/11/18 04:38:53;;;;;;;2.57;2.07;;;;;;;;;;4421203;32;316219;-84
2023/11/18 04:41:20;;;;;;;3.07;2.43;;;;;;;;;;4402716;32;316101;-84
2023/11/18 04:43:48;;;;;;;4.10;2.60;;;;;;;;;;4411510;32;333537;-83
2023/11/18 04:46:15;;;;;;;3.07;2.63;;;;;;;;;;4414089;32;315552;-82
2023/11/18 04:48:42;;;;;;;2.33;2.07;;;;;;;;;;4400867;32;315861;-85
2023/11/18 04:51:09;;;;;;;4.13;2.40;;;;;;;;;;4383510;32;316871;-84
2023/11/18 04:53:36;;;;;;;4.30;3.00;;;;;;;;;;4380240;32;319630;-87
2023/11/18 04:56:03;;;;;;;4.07;2.23;;;;;;;;;;4399656;32;316238;-82
2023/11/18 04:58:30;;;;;;;5.30;2.50;;;;;;;;;;4389759;32;316538;-82
2023/11/18 05:00:58;;;;;;;2.47;2.07;;;;;;;;;;4399497;32;316538;-83
2023/11/18 05:03:25;;;;;;;2.13;1.93;;;;;;;;;;4384388;32;316142;-84
2023/11/18 05:05:51;;;;;;;2.50;2.27;;;;;;;;;;4405685;32;316324;-84
2023/11/18 05:08:20;;;;;;;2.47;2.10;;;;;;;;;;4406323;32;315755;-85
2023/11/18 05:10:48;;;;;;;3.30;2.40;;;;;;;;;;4386620;32;417505;-83
2023/11/18 05:13:16;;;;;;;2.27;2.07;;;;;;;;;;4399645;32;316313;-83
2023/11/18 05:15:45;;;;;;;2.43;2.10;;;;;;;;;;4388064;32;316452;-85
2023/11/18 05:18:14;;;;;;;3.43;3.10;;;;;;;;;;4400761;32;315697;-85
2023/11/18 05:20:41;;;;;;;4.27;2.83;;;;;;;;;;4379491;32;320964;-85
2023/11/18 05:23:09;;;;;;;2.20;2.00;;;;;;;;;;4394263;32;316170;-84
2023/11/18 05:25:37;;;;;;;3.07;2.03;;;;;;;;;;4403650;32;316214;-84
2023/11/18 05:28:04;;;;;;;2.00;1.77;;;;;;;;;;4414076;32;316443;-84
2023/11/18 05:30:31;;;;;;;2.63;1.70;;;;;;;;;;4388214;32;316000;-85
2023/11/18 05:32:59;;;;;;;1.90;1.70;;;;;;;;;;4396357;32;316535;-85
2023/11/18 05:35:28;;;;;;;2.23;1.80;;;;;;;;;;4391448;32;316273;-85
2023/11/18 05:37:55;;;;;;;2.10;1.90;;;;;;;;;;4402198;32;316211;-85
2023/11/18 05:40:22;;;;;;;1.97;1.57;;;;;;;;;;4387621;32;316699;-86
2023/11/18 05:42:51;;;;;;;2.03;1.83;;;;;;;;;;4398031;32;316247;-85
2023/11/18 05:45:27;;;;;;;1.87;1.70;;;;;;;;;;4398190;32;315904;-85
2023/11/18 05:47:55;;;;;;;2.90;2.07;;;;;;;;;;4383566;32;417048;-85
2023/11/18 05:50:22;;;;;;;2.20;1.90;;;;;;;;;;4384347;32;316281;-83
2023/11/18 05:52:50;;;;;;;2.77;1.67;;;;;;;;;;4398644;32;316550;-84
2023/11/18 05:55:17;;;;;;;2.47;2.17;;;;;;;;;;4398648;32;316441;-84
2023/11/18 05:57:44;;;;;;;4.80;3.57;;;;;;;;;;4388768;32;316249;-84
2023/11/18 06:00:15;;;;;;;2.63;1.83;;;;;;;;;;4397682;32;316340;-84
2023/11/18 06:02:42;;;;;;;4.30;3.10;;;;;;;;;;4388487;32;316132;-83
2023/11/18 06:05:09;;;;;;;5.33;2.23;;;;;;;;;;4394836;32;316424;-83
2023/11/18 06:07:36;;;;;;;4.20;2.60;;;;;;;;;;4402684;32;316547;-83
2023/11/18 06:10:06;;;;;;;3.90;1.80;;;;;;;;;;4393591;32;333327;-84
2023/11/18 06:12:33;;;;;;;4.27;3.10;;;;;;;;;;4372550;32;316640;-83
2023/11/18 06:15:01;;;;;;;3.00;2.57;;;;;;;;;;4383573;32;316718;-84
2023/11/18 06:17:27;;;;;;;3.33;2.53;;;;;;;;;;4374255;32;316774;-84
2023/11/18 06:19:54;;;;;;;2.40;2.00;;;;;;;;;;4407936;32;316318;-83
2023/11/18 06:22:21;;;;;;;7.03;2.47;;;;;;;;;;4382696;32;316625;-85
2023/11/18 06:24:48;;;;;;;3.97;2.23;;;;;;;;;;4391357;32;316564;-84
2023/11/18 06:27:17;;;;;;;3.00;2.20;;;;;;;;;;4413678;32;316341;-83
2023/11/18 06:29:44;;;;;;;3.20;2.50;;;;;;;;;;4398948;32;315537;-84
2023/11/18 06:32:12;;;;;;;3.17;1.83;;;;;;;;;;4395938;32;315909;-82
2023/11/18 06:34:39;;;;;;;2.37;1.90;;;;;;;;;;4385066;32;315913;-82
2023/11/18 06:37:07;;;;;;;2.87;1.97;;;;;;;;;;4383817;32;315611;-86
2023/11/18 06:39:39;;;;;;;3.33;2.20;;;;;;;;;;4386530;32;316273;-85
2023/11/18 06:42:11;;;;;;;7.13;4.43;;;;;;;;;;4395524;32;350889;-87
2023/11/18 06:44:39;;;;;;;6.47;3.43;;;;;;;;;;4389366;32;316256;-83
2023/11/18 06:47:06;;;;;;;3.17;2.87;;;;;;;;;;4398203;32;315538;-88
2023/11/18 06:49:34;;;;;;;4.07;2.80;;;;;;;;;;4393241;32;315892;-87
2023/11/18 06:52:03;;;;;;;10.93;8.73;;;;;;;;;;4414377;32;315723;-86
2023/11/18 06:54:30;;;;;;;3.40;2.33;;;;;;;;;;4386209;32;316658;-86
2023/11/18 06:56:57;;;;;;;5.17;3.17;;;;;;;;;;4410941;32;315740;-85
2023/11/18 06:59:24;;;;;;;2.40;2.07;;;;;;;;;;4373088;32;316223;-83
2023/11/18 07:01:52;;;;;;;4.63;3.83;;;;;;;;;;4386007;32;315982;-85
2023/11/18 07:04:19;;;;;;;3.40;3.00;;;;;;;;;;4411847;32;316203;-90
2023/11/18 07:06:45;;;;;;;5.83;3.93;;;;;;;;;;4377721;32;415471;-88
2023/11/18 07:09:16;;;;;;;3.10;2.00;;;;;;;;;;4383083;32;417189;-86
2023/11/18 07:11:44;;;;;;;2.57;1.80;;;;;;;;;;4407168;32;316502;-82
2023/11/18 07:14:12;;;;;;;7.07;4.00;;;;;;;;;;4403207;32;316607;-83
2023/11/18 07:16:40;;;;;;;2.80;2.00;;;;;;;;;;4382930;32;316642;-85
2023/11/18 07:19:09;;;;;;;4.60;2.50;;;;;;;;;;4373293;32;316353;-85
2023/11/18 07:21:36;;;;;;;4.87;3.53;;;;;;;;;;4397191;32;316544;-85
2023/11/18 07:24:03;;;;;;;1.60;1.20;;;;;;;;;;4384437;32;316899;-84
2023/11/18 07:26:30;;;;;;;2.60;2.30;;;;;;;;;;4395681;32;316615;-85
2023/11/18 07:28:57;;;;;;;2.40;1.90;;;;;;;;;;4382639;32;316375;-85
2023/11/18 07:31:24;;;;;;;5.00;3.60;;;;;;;;;;4384479;32;316583;-85
2023/11/18 07:33:52;;;;;;;1.40;1.30;;;;;;;;;;4385571;32;316889;-84
2023/11/18 07:36:20;;;;;;;2.80;1.90;;;;;;;;;;4396618;32;319969;-84
2023/11/18 07:38:47;;;;;;;5.53;3.27;;;;;;;;;;4381347;32;316733;-81
2023/11/18 07:41:23;;;;;;;2.60;2.00;;;;;;;;;;4394885;32;316014;-82
2023/11/18 07:43:50;;;;;;;3.53;1.90;;;;;;;;;;4384665;32;316602;-83
2023/11/18 07:46:17;;;;;;;7.30;1.40;;;;;;;;;;4396600;32;316129;-83
2023/11/18 07:48:44;;;;;;;1.93;1.73;;;;;;;;;;4409745;32;316080;-81
2023/11/18 07:51:11;;;;;;;1.63;1.37;;;;;;;;;;4398046;32;415972;-84
2023/11/18 07:53:42;;;;;;;3.00;2.40;;;;;;;;;;4412994;32;316040;-83
2023/11/18 07:56:10;;;;;;;5.53;3.87;;;;;;;;;;4390500;32;316632;-81
2023/11/18 07:58:37;;;;;;;2.70;2.37;;;;;;;;;;4400467;32;316885;-84
2023/11/18 08:01:07;;;;;;;1.60;1.50;;;;;;;;;;4390748;32;316915;-82
2023/11/18 08:03:34;;;;;;;3.87;2.23;;;;;;;;;;4403001;32;316751;-83
2023/11/18 08:06:02;;;;;;;2.90;2.40;;;;;;;;;;4391026;32;316137;-83
2023/11/18 08:08:29;;;;;;;3.03;2.30;;;;;;;;;;4414525;32;315787;-83
2023/11/18 08:10:57;;;;;;;3.80;1.70;;;;;;;;;;4393872;32;316730;-81
2023/11/18 08:13:25;;;;;;;9.50;5.90;;;;;;;;;;4400519;32;316865;-82
2023/11/18 08:15:51;;;;;;;5.17;3.97;;;;;;;;;;4376826;32;316331;-90
2023/11/18 08:18:21;;;;;;;4.67;3.43;;;;;;;;;;4391997;32;317027;-90
2023/11/18 08:20:49;;;;;;;3.10;2.33;;;;;;;;;;4379493;32;358423;-87
2023/11/18 08:23:18;;;;;;;9.53;4.00;;;;;;;;;;4403284;32;316668;-82
2023/11/18 08:25:46;;;;;;;4.83;3.17;;;;;;;;;;4413538;32;316580;-88
2023/11/18 08:28:15;;;;;;;2.63;1.93;;;;;;;;;;4399207;32;415511;-88
2023/11/18 08:30:42;;;;;;;1.60;1.50;;;;;;;;;;4403855;32;316404;-83
2023/11/18 08:33:09;;;;;;;5.07;2.77;;;;;;;;;;4387445;32;316865;-81
2023/11/18 08:35:35;;;;;;;2.83;1.90;;;;;;;;;;4397992;32;316173;-87
2023/11/18 08:38:04;;;;;;;3.00;2.17;;;;;;;;;;4391092;32;316334;-87
2023/11/18 08:40:31;;;;;;;7.87;3.07;;;;;;;;;;4400080;32;315760;-82
2023/11/18 08:42:57;;;;;;;2.93;2.43;;;;;;;;;;4389264;32;316841;-89
2023/11/18 08:45:29;;;;;;;3.80;2.80;;;;;;;;;;4400195;32;316670;-90
2023/11/18 08:47:56;;;;;;;1.63;1.50;;;;;;;;;;4387601;32;316549;-91
2023/11/18 08:50:24;;;;;;;3.47;3.17;;;;;;;;;;4397094;32;316650;-91
2023/11/18 08:52:53;;;;;;;6.00;2.90;;;;;;;;;;4387754;32;316492;-90
2023/11/18 08:55:20;;;;;;;4.77;2.53;;;;;;;;;;4398557;32;316556;-91
2023/11/18 08:57:59;;;;;;;3.97;2.57;;;;;;;;;;4388625;32;316615;-90
2023/11/18 09:03:08;;;;;;;3.83;3.47;;;;;;;;;;4387595;32;316517;-92
2023/11/18 09:05:35;;;;;;;3.03;2.30;;;;;;;;;;4398810;32;316399;-91
2023/11/18 09:08:05;;;;;;;2.23;1.90;;;;;;;;;;4388932;32;316424;-86
2023/11/18 09:10:32;;;;;;;1.40;1.30;;;;;;;;;;4399927;32;316556;-89
2023/11/18 09:12:59;;;;;;;2.40;2.07;;;;;;;;;;4388857;32;316674;-90
2023/11/18 09:15:30;;;;;;;1.93;1.47;;;;;;;;;;4398865;32;316661;-92
2023/11/18 09:17:57;;;;;;;1.70;1.60;;;;;;;;;;4388889;32;316674;-90
2023/11/18 09:20:24;;;;;;;3.23;2.23;;;;;;;;;;4399068;32;316450;-91
2023/11/18 09:22:55;;;;;;;7.10;4.43;;;;;;;;;;4390271;32;316529;-91
2023/11/18 09:25:23;;;;;;;4.23;2.80;;;;;;;;;;4399673;32;316498;-91
2023/11/18 09:27:49;;;;;;;1.73;1.63;;;;;;;;;;4389582;32;316405;-84
2023/11/18 09:30:16;;;;;;;1.60;1.50;;;;;;;;;;4399547;32;315495;-90
2023/11/18 09:32:47;;;;;;;4.10;1.80;;;;;;;;;;4399735;32;316479;-90
2023/11/18 09:35:14;;;;;;;1.90;1.67;;;;;;;;;;4386699;32;416300;-91
2023/11/18 09:37:42;;;;;;;3.00;2.40;;;;;;;;;;4398452;32;316768;-90
2023/11/18 09:40:14;;;;;;;3.27;2.37;;;;;;;;;;4389606;32;316721;-92
2023/11/18 09:42:43;;;;;;;2.40;1.60;;;;;;;;;;4399974;32;316563;-89
2023/11/18 09:45:13;;;;;;;7.53;5.23;;;;;;;;;;4387169;32;354374;-87
2023/11/18 09:47:47;;;;;;;3.73;2.30;;;;;;;;;;4399841;32;315852;-91
2023/11/18 09:50:20;;;;;;;8.23;3.37;;;;;;;;;;4386475;32;415580;-89
2023/11/18 09:52:51;;;;;;;6.37;3.50;;;;;;;;;;4389894;32;316159;-88
2023/11/18 09:55:26;;;;;;;4.97;2.10;;;;;;;;;;4398496;32;316618;-91
2023/11/18 09:58:03;;;;;;;3.87;2.10;;;;;;;;;;4388450;32;316342;-89
2023/11/18 10:00:32;;;;;;;1.60;1.50;;;;;;;;;;4399852;32;316739;-90
2023/11/18 10:03:01;;;;;;;1.73;1.40;;;;;;;;;;4387668;32;346805;-92
2023/11/18 10:05:30;;;;;;;1.63;1.53;;;;;;;;;;4398039;32;316649;-89
2023/11/18 10:07:58;;;;;;;3.17;2.20;;;;;;;;;;4389061;32;316156;-90
2023/11/18 10:10:30;;;;;;;1.50;1.40;;;;;;;;;;4399379;32;316535;-86
2023/11/18 10:12:58;;;;;;;2.50;2.00;;;;;;;;;;4388177;32;317145;-92
2023/11/18 10:15:26;;;;;;;5.17;3.07;;;;;;;;;;4397854;32;315974;-92
2023/11/18 10:17:59;;;;;;;5.67;3.40;;;;;;;;;;4388013;32;316794;-90
2023/11/18 10:20:45;;;;;;;2.93;2.30;;;;;;;;;;4397668;32;316563;-92
2023/11/18 10:23:18;;;;;;;3.60;2.30;;;;;;;;;;4385048;32;417508;-83
2023/11/18 10:25:48;;;;;;;2.87;1.23;;;;;;;;;;4399290;32;315401;-90
2023/11/18 10:28:27;;;;;;;4.33;1.70;;;;;;;;;;4386445;32;415050;-90
2023/11/18 10:30:54;;;;;;;4.00;2.70;;;;;;;;;;4389315;32;316925;-90
2023/11/18 10:33:21;;;;;;;6.43;1.70;;;;;;;;;;4398885;32;316979;-88
2023/11/18 10:35:55;;;;;;;2.03;1.57;;;;;;;;;;4387886;32;316978;-91
2023/11/18 10:38:25;;;;;;;1.40;1.30;;;;;;;;;;4398177;32;316531;-90
2023/11/18 10:40:55;;;;;;;1.20;1.10;;;;;;;;;;4388905;32;316798;-85
2023/11/18 10:43:24;;;;;;;1.73;1.50;;;;;;;;;;4398930;32;316377;-91
2023/11/18 10:45:52;;;;;;;3.83;1.43;;;;;;;;;;4388824;32;315953;-89
2023/11/18 10:48:21;;;;;;;2.00;1.80;;;;;;;;;;4398620;32;316584;-90
2023/11/18 10:50:49;;;;;;;2.97;1.73;;;;;;;;;;4387819;32;316946;-84
2023/11/18 10:53:19;;;;;;;2.03;1.80;;;;;;;;;;4397931;32;316969;-91
2023/11/18 10:55:46;;;;;;;2.90;2.60;;;;;;;;;;4399038;32;316445;-91
2023/11/18 10:58:14;;;;;;;1.70;1.60;;;;;;;;;;4385929;32;416980;-89
2023/11/18 11:00:48;;;;;;;2.77;1.60;;;;;;;;;;4398609;32;316529;-90
2023/11/18 11:03:15;;;;;;;2.80;1.87;;;;;;;;;;4381681;32;387697;-90
2023/11/18 11:05:43;;;;;;;2.67;2.10;;;;;;;;;;4382993;32;325128;-85
2023/11/18 11:08:13;;;;;;;2.00;1.80;;;;;;;;;;4371427;32;353386;-89
2023/11/18 11:10:42;;;;;;;1.40;1.30;;;;;;;;;;4382459;32;316570;-89
2023/11/18 11:13:11;;;;;;;3.23;2.03;;;;;;;;;;4372467;32;316252;-91
2023/11/18 11:15:45;;;;;;;3.67;2.47;;;;;;;;;;4392614;32;316926;-89
2023/11/18 11:18:22;;;;;;;2.13;1.90;;;;;;;;;;4383826;32;417450;-91
2023/11/18 11:21:05;;;;;;;1.93;1.73;;;;;;;;;;4387274;32;316488;-90
2023/11/18 11:23:44;;;;;;;1.40;1.30;;;;;;;;;;4398555;32;316504;-89
2023/11/18 11:26:39;;;;;;;2.37;2.10;;;;;;;;;;4387532;32;323037;-90
2023/11/18 11:29:19;;;;;;;2.90;2.13;;;;;;;;;;4386977;32;316408;-89
2023/11/18 11:31:51;;;;;;;2.73;1.63;;;;;;;;;;4398197;32;316564;-89
2023/11/18 11:34:23;;;;;;;2.90;1.40;;;;;;;;;;4384163;32;418033;-86
2023/11/18 11:36:52;;;;;;;2.23;1.97;;;;;;;;;;4388331;32;316587;-90
2023/11/18 11:39:25;;;;;;;18.83;6.43;;;;;;;;;;4398356;32;316906;-90
2023/11/18 11:41:56;;;;;;;2.73;1.70;;;;;;;;;;4388463;32;317692;-87
2023/11/18 11:44:28;;;;;;;2.13;1.50;;;;;;;;;;4398273;32;316820;-91
2023/11/18 11:46:59;;;;;;;4.90;2.83;;;;;;;;;;4387027;32;316471;-90
2023/11/18 11:49:29;;;;;;;2.83;1.93;;;;;;;;;;4396132;32;335854;-88
2023/11/18 11:52:04;;;;;;;2.30;1.60;;;;;;;;;;4386176;32;348664;-88
2023/11/18 11:54:39;;;;;;;1.83;1.57;;;;;;;;;;4398254;32;316030;-90
2023/11/18 11:57:07;;;;;;;1.60;1.50;;;;;;;;;;4387215;32;316507;-89
2023/11/18 11:59:55;;;;;;;1.93;1.50;;;;;;;;;;4398208;32;316199;-87
2023/11/18 12:02:24;;;;;;;1.33;1.23;;;;;;;;;;4384771;32;415198;-90
2023/11/18 12:04:54;;;;;;;3.27;2.10;;;;;;;;;;4386700;32;316261;-87
2023/11/18 12:07:23;;;;;;;6.20;2.07;;;;;;;;;;4396970;32;316272;-91
2023/11/18 12:09:53;;;;;;;5.97;2.27;;;;;;;;;;4387014;32;315306;-87
2023/11/18 12:12:26;;;;;;;2.77;1.60;;;;;;;;;;4398473;32;315670;-88
2023/11/18 12:14:56;;;;;;;4.40;1.60;;;;;;;;;;4388053;32;315654;-86
2023/11/18 12:17:28;;;;;;;1.70;1.50;;;;;;;;;;4396879;32;316011;-90
2023/11/18 12:19:58;;;;;;;8.17;2.33;;;;;;;;;;4387490;32;316216;-86
2023/11/18 12:22:29;;;;;;;2.00;1.60;;;;;;;;;;4397766;32;316324;-87
2023/11/18 12:25:32;;;;;;;2.07;1.87;;;;;;;;;;4386947;32;315327;-91
2023/11/18 12:28:08;;;;;;;3.07;2.37;;;;;;;;;;4342913;32;316730;-82
2023/11/18 12:33:26;;;;;;;2.50;1.90;;;;;;;;;;4390783;32;387445;-87
2023/11/18 12:36:43;;;;;;;8.70;4.10;;;;;;;;;;4396671;32;316230;-86
2023/11/18 12:39:41;;;;;;;4.20;2.33;;;;;;;;;;4390383;32;316339;-86
2023/11/18 12:42:11;;;;;;;5.37;3.17;;;;;;;;;;4390462;32;316138;-85
2023/11/18 12:44:57;;;;;;;8.90;4.87;;;;;;;;;;4400477;32;315320;-84
2023/11/18 12:47:28;;;;;;;6.17;3.73;;;;;;;;;;4386901;32;417941;-85
2023/11/18 12:49:55;;;;;;;4.57;2.90;;;;;;;;;;4390399;32;316568;-85
2023/11/18 12:52:23;;;;;;;3.13;2.40;;;;;;;;;;4400293;32;316064;-86
2023/11/18 12:54:51;;;;;;;2.80;1.97;;;;;;;;;;4389043;32;315981;-85
2023/11/18 12:57:18;;;;;;;2.20;1.50;;;;;;;;;;4399924;32;316349;-85
2023/11/18 12:59:46;;;;;;;3.17;1.80;;;;;;;;;;4399673;32;316015;-86
2023/11/18 13:02:19;;;;;;;3.77;2.37;;;;;;;;;;4387506;32;414925;-84
2023/11/18 13:04:47;;;;;;;1.83;1.67;;;;;;;;;;4399972;32;315692;-82
2023/11/18 13:07:14;;;;;;;5.67;2.20;;;;;;;;;;4385967;32;415049;-88
2023/11/18 13:09:44;;;;;;;2.60;2.10;;;;;;;;;;4400053;32;316093;-85
2023/11/18 13:12:14;;;;;;;5.00;1.70;;;;;;;;;;4389002;32;317036;-87
2023/11/18 13:14:42;;;;;;;1.67;1.40;;;;;;;;;;4399851;32;315442;-87
2023/11/18 13:17:12;;;;;;;3.73;1.90;;;;;;;;;;4388681;32;316113;-83
2023/11/18 13:19:39;;;;;;;1.87;1.40;;;;;;;;;;4399603;32;315489;-88
2023/11/18 13:22:08;;;;;;;3.23;2.27;;;;;;;;;;4389822;32;316569;-84
2023/11/18 13:24:36;;;;;;;2.57;1.70;;;;;;;;;;4398468;32;324772;-84
2023/11/18 13:27:04;;;;;;;1.90;1.30;;;;;;;;;;4389836;32;316515;-85
2023/11/18 13:29:31;;;;;;;1.87;1.57;;;;;;;;;;4399700;32;316151;-86
2023/11/18 13:32:01;;;;;;;1.40;1.30;;;;;;;;;;4389963;32;316189;-85
2023/11/18 13:34:30;;;;;;;4.10;2.07;;;;;;;;;;4399577;32;315894;-87
2023/11/18 13:36:57;;;;;;;5.20;2.30;;;;;;;;;;4386738;32;316184;-85
2023/11/18 13:39:27;;;;;;;1.97;1.40;;;;;;;;;;4398750;32;316873;-86
2023/11/18 13:41:54;;;;;;;1.80;1.70;;;;;;;;;;4389310;32;316467;-84
2023/11/18 13:44:35;;;;;;;1.77;1.40;;;;;;;;;;4399459;32;316570;-84
2023/11/18 13:47:05;;;;;;;4.13;2.40;;;;;;;;;;4377190;32;316447;-87
2023/11/18 13:49:34;;;;;;;2.37;2.07;;;;;;;;;;4383389;32;316660;-88
2023/11/18 13:52:02;;;;;;;5.50;2.70;;;;;;;;;;4374387;32;316395;-86
2023/11/18 13:54:29;;;;;;;3.37;2.30;;;;;;;;;;4387398;32;315742;-82
2023/11/18 13:56:58;;;;;;;3.67;2.17;;;;;;;;;;4388043;32;316001;-83
2023/11/18 13:59:26;;;;;;;2.00;1.50;;;;;;;;;;4398295;32;316335;-85
2023/11/18 14:01:54;;;;;;;2.87;2.10;;;;;;;;;;4386917;32;357008;-87
2023/11/18 14:04:24;;;;;;;1.70;1.60;;;;;;;;;;4398798;32;316438;-86
2023/11/18 14:06:54;;;;;;;2.00;1.90;;;;;;;;;;4388951;32;316399;-88
2023/11/18 14:09:24;;;;;;;9.10;1.43;;;;;;;;;;4398976;32;316671;-86
2023/11/18 14:11:52;;;;;;;1.67;1.57;;;;;;;;;;4387999;32;316463;-83
2023/11/18 14:14:19;;;;;;;4.07;2.07;;;;;;;;;;4399230;32;316666;-85
2023/11/18 14:16:45;;;;;;;1.63;1.40;;;;;;;;;;4388659;32;315894;-87
2023/11/18 14:19:13;;;;;;;1.67;1.50;;;;;;;;;;4397337;32;316137;-87
2023/11/18 14:21:40;;;;;;;4.80;2.93;;;;;;;;;;4375294;32;316463;-86
2023/11/18 14:24:10;;;;;;;6.77;3.50;;;;;;;;;;4397748;32;315430;-82
2023/11/18 14:26:39;;;;;;;3.90;2.33;;;;;;;;;;4397469;32;341185;-85
2023/11/18 14:29:07;;;;;;;2.70;2.40;;;;;;;;;;4384958;32;416724;-86
2023/11/18 14:31:34;;;;;;;6.40;2.80;;;;;;;;;;4397765;32;316768;-84
2023/11/18 14:34:01;;;;;;;3.93;2.00;;;;;;;;;;4388698;32;316803;-87
2023/11/18 14:36:28;;;;;;;3.77;2.10;;;;;;;;;;4398709;32;315990;-85
2023/11/18 14:38:55;;;;;;;3.60;2.40;;;;;;;;;;4388932;32;317191;-85
2023/11/18 14:41:26;;;;;;;5.73;3.20;;;;;;;;;;4399063;32;316438;-83
2023/11/18 14:43:53;;;;;;;10.30;7.20;;;;;;;;;;4388646;32;316505;-85
2023/11/18 14:46:20;;;;;;;4.40;3.40;;;;;;;;;;4397106;32;326657;-87